createdAt,value
2022-10-30T00:00:44.357Z,100.00
2022-10-30T00:01:38.853Z,100.00
2022-10-30T00:02:37.076Z,100.00
2022-10-30T00:03:47.394Z,100.00
2022-10-30T00:04:44.083Z,100.00
2022-10-30T00:05:40.835Z,100.00
2022-10-30T00:06:39.129Z,100.00
2022-10-30T00:07:46.249Z,100.00
2022-10-30T00:08:38.314Z,100.00
2022-10-30T00:09:37.818Z,100.00
2022-10-30T00:10:42.741Z,100.00
2022-10-30T00:11:36.963Z,100.00
2022-10-30T00:12:37.999Z,100.00
2022-10-30T00:13:49.913Z,100.00
2022-10-30T00:14:42.024Z,100.00
2022-10-30T00:15:40.658Z,100.00
2022-10-30T00:16:44.415Z,100.00
2022-10-30T00:17:39.868Z,100.00
2022-10-30T00:18:35.615Z,100.00
2022-10-30T00:19:36.492Z,100.00
2022-10-30T00:20:38.702Z,100.00
2022-10-30T02:23:09.375Z,100.00
2022-10-30T02:23:14.957Z,100.00
2022-10-30T02:24:14.968Z,100.00
2022-10-30T02:25:14.996Z,100.00
2022-10-30T02:26:14.855Z,100.00
2022-10-30T02:27:14.905Z,100.00
2022-10-30T02:28:14.889Z,100.00
2022-10-30T02:29:14.896Z,100.00
2022-10-30T02:30:14.800Z,100.00
2022-10-30T02:31:14.850Z,100.00
2022-10-30T02:32:14.786Z,100.00
2022-10-30T02:33:14.884Z,100.00
2022-10-30T02:34:14.917Z,100.00
2022-10-30T02:35:14.843Z,100.00
2022-10-30T02:36:14.795Z,100.00
2022-10-30T02:37:14.684Z,100.00
2022-10-30T02:38:14.758Z,100.00
2022-10-30T02:39:14.760Z,100.00
2022-10-30T02:40:14.761Z,100.00
2022-10-30T02:41:14.720Z,100.00
2022-10-30T02:42:14.746Z,100.00
2022-10-30T02:43:14.683Z,100.00
2022-10-30T02:44:14.602Z,100.00
2022-10-30T02:45:14.643Z,100.00
2022-10-30T02:46:14.662Z,100.00
2022-10-30T02:47:14.755Z,100.00
2022-10-30T02:48:14.630Z,100.00
2022-10-30T02:49:14.558Z,100.00
2022-10-30T02:50:14.595Z,100.00
2022-10-30T02:51:14.509Z,100.00
2022-10-30T02:52:14.561Z,100.00
2022-10-30T02:53:14.590Z,100.00
2022-10-30T02:54:14.521Z,100.00
2022-10-30T02:55:14.536Z,100.00
2022-10-30T02:56:14.531Z,100.00
2022-10-30T02:57:14.484Z,100.00
2022-10-30T02:58:14.457Z,100.00
2022-10-30T02:59:14.509Z,100.00
2022-10-30T03:00:14.458Z,100.00
2022-10-30T03:01:14.481Z,100.00
2022-10-30T03:02:14.563Z,100.00
2022-10-30T03:03:15.796Z,100.00
2022-10-30T03:04:14.442Z,100.00
2022-10-30T03:05:14.468Z,100.00
2022-10-30T03:06:14.343Z,100.00
2022-10-30T03:07:14.356Z,100.00
2022-10-30T03:08:14.267Z,100.00
2022-10-30T03:09:14.239Z,100.00
2022-10-30T03:10:14.236Z,100.00
2022-10-30T03:11:14.222Z,100.00
2022-10-30T03:12:14.224Z,100.00
2022-10-30T03:13:14.182Z,100.00
2022-10-30T03:14:14.168Z,100.00
2022-10-30T03:15:14.156Z,100.00
2022-10-30T03:16:14.161Z,100.00
2022-10-30T03:17:14.154Z,100.00
2022-10-30T03:18:14.138Z,100.00
2022-10-30T03:19:14.093Z,100.00
2022-10-30T03:20:14.084Z,100.00
2022-10-30T03:21:14.086Z,100.00
2022-10-30T03:22:14.080Z,100.00
2022-10-30T03:23:14.041Z,100.00
2022-10-30T03:24:14.032Z,100.00
2022-10-30T03:25:14.012Z,100.00
2022-10-30T03:26:14.000Z,100.00
2022-10-30T03:27:14.014Z,100.00
2022-10-30T03:28:14.013Z,100.00
2022-10-30T03:29:13.961Z,100.00
2022-10-30T03:30:13.949Z,100.00
2022-10-30T03:31:13.940Z,100.00
2022-10-30T03:32:14.088Z,100.00
2022-10-30T03:33:13.906Z,100.00
2022-10-30T03:34:13.927Z,100.00
2022-10-30T03:35:13.877Z,100.00
2022-10-30T03:36:13.866Z,100.00
2022-10-30T03:37:13.867Z,100.00
2022-10-30T03:38:13.873Z,100.00
2022-10-30T03:39:13.839Z,100.00
2022-10-30T03:40:13.816Z,100.00
2022-10-30T03:41:13.795Z,100.00
2022-10-30T03:42:13.814Z,100.00
2022-10-30T03:43:13.781Z,100.00
2022-10-30T03:44:13.760Z,100.00
2022-10-30T03:45:13.751Z,100.00
2022-10-30T03:46:13.753Z,100.00
2022-10-30T03:47:13.804Z,100.00
2022-10-30T03:48:13.735Z,100.00
2022-10-30T03:49:13.689Z,100.00
2022-10-30T03:50:13.687Z,100.00
2022-10-30T03:51:13.668Z,100.00
2022-10-30T03:52:13.685Z,100.00
2022-10-30T03:53:13.647Z,100.00
2022-10-30T03:54:13.642Z,100.00
2022-10-30T03:55:13.642Z,100.00
2022-10-30T03:56:13.618Z,100.00
2022-10-30T03:57:13.599Z,100.00
2022-10-30T03:58:13.594Z,100.00
2022-10-30T03:59:13.570Z,100.00
2022-10-30T04:00:13.577Z,100.00
2022-10-30T04:01:13.670Z,100.00
2022-10-30T04:02:13.693Z,100.00
2022-10-30T04:03:13.524Z,100.00
2022-10-30T04:04:13.555Z,100.00
2022-10-30T04:05:13.503Z,100.00
2022-10-30T04:06:13.507Z,100.00
2022-10-30T04:07:13.452Z,100.00
2022-10-30T04:08:13.464Z,100.00
2022-10-30T04:09:13.451Z,100.00
2022-10-30T04:10:14.941Z,100.00
2022-10-30T04:11:13.459Z,100.00
2022-10-30T04:12:13.424Z,100.00
2022-10-30T04:13:13.418Z,100.00
2022-10-30T04:14:13.373Z,100.00
2022-10-30T04:15:13.368Z,100.00
2022-10-30T04:16:13.409Z,100.00
2022-10-30T04:17:13.371Z,100.00
2022-10-30T04:18:13.332Z,100.00
2022-10-30T04:19:13.292Z,100.00
2022-10-30T04:20:13.281Z,100.00
2022-10-30T04:21:13.268Z,100.00
2022-10-30T04:22:13.288Z,100.00
2022-10-30T04:23:13.272Z,100.00
2022-10-30T04:24:13.254Z,100.00
2022-10-30T04:25:19.256Z,100.00
2022-10-30T04:26:13.217Z,100.00
2022-10-30T04:27:13.196Z,100.00
2022-10-30T04:28:13.195Z,100.00
2022-10-30T04:29:13.170Z,100.00
2022-10-30T04:30:13.170Z,100.00
2022-10-30T04:31:13.150Z,100.00
2022-10-30T04:32:13.128Z,100.00
2022-10-30T04:33:13.114Z,100.00
2022-10-30T04:34:13.108Z,100.00
2022-10-30T04:35:13.085Z,100.00
2022-10-30T04:36:13.084Z,100.00
2022-10-30T04:37:13.064Z,100.00
2022-10-30T04:38:13.065Z,100.00
2022-10-30T04:39:13.026Z,100.00
2022-10-30T04:40:13.036Z,100.00
2022-10-30T04:41:13.018Z,100.00
2022-10-30T04:42:12.986Z,100.00
2022-10-30T04:43:12.987Z,100.00
2022-10-30T04:44:13.003Z,100.00
2022-10-30T04:45:15.265Z,100.00
2022-10-30T04:46:12.952Z,100.00
2022-10-30T04:47:12.951Z,100.00
2022-10-30T04:48:12.954Z,100.00
2022-10-30T04:49:12.920Z,100.00
2022-10-30T04:50:12.879Z,100.00
2022-10-30T04:51:12.883Z,100.00
2022-10-30T04:52:12.870Z,100.00
2022-10-30T04:53:12.855Z,100.00
2022-10-30T04:54:12.860Z,100.00
2022-10-30T04:55:12.809Z,100.00
2022-10-30T04:56:12.818Z,100.00
2022-10-30T04:57:12.785Z,100.00
2022-10-30T04:58:12.778Z,100.00
2022-10-30T04:59:12.781Z,100.00
2022-10-30T05:00:12.755Z,100.00
2022-10-30T05:01:12.928Z,100.00
2022-10-30T05:02:12.913Z,100.00
2022-10-30T05:03:12.727Z,100.00
2022-10-30T05:04:12.705Z,100.00
2022-10-30T05:05:12.690Z,100.00
2022-10-30T05:06:12.670Z,100.00
2022-10-30T05:07:12.690Z,100.00
2022-10-30T05:08:12.640Z,100.00
2022-10-30T05:09:12.625Z,100.00
2022-10-30T05:10:12.624Z,100.00
2022-10-30T05:11:12.612Z,100.00
2022-10-30T05:12:12.599Z,100.00
2022-10-30T05:13:12.596Z,100.00
2022-10-30T05:14:12.572Z,100.00
2022-10-30T05:15:12.570Z,100.00
2022-10-30T05:16:12.536Z,100.00
2022-10-30T05:17:12.561Z,100.00
2022-10-30T05:18:12.513Z,100.00
2022-10-30T05:19:12.541Z,100.00
2022-10-30T05:20:14.888Z,100.00
2022-10-30T05:21:12.496Z,100.00
2022-10-30T05:22:12.450Z,100.00
2022-10-30T05:23:12.468Z,100.00
2022-10-30T05:24:12.438Z,100.00
2022-10-30T05:25:12.446Z,100.00
2022-10-30T05:26:12.518Z,100.00
2022-10-30T05:27:12.413Z,100.00
2022-10-30T05:28:12.480Z,100.00
2022-10-30T05:29:12.383Z,100.00
2022-10-30T05:30:12.358Z,100.00
2022-10-30T05:31:12.338Z,100.00
2022-10-30T05:33:12.331Z,100.00
2022-10-30T05:34:12.292Z,100.00
2022-10-30T05:35:12.329Z,100.00
2022-10-30T05:36:12.279Z,100.00
2022-10-30T05:37:12.256Z,100.00
2022-10-30T05:38:12.260Z,100.00
2022-10-30T05:39:12.232Z,100.00
2022-10-30T05:40:12.228Z,100.00
2022-10-30T05:41:12.225Z,100.00
2022-10-30T05:42:13.894Z,100.00
2022-10-30T05:43:12.198Z,100.00
2022-10-30T05:44:12.175Z,100.00
2022-10-30T05:45:12.163Z,100.00
2022-10-30T05:46:12.155Z,100.00
2022-10-30T05:47:12.137Z,100.00
2022-10-30T05:48:12.166Z,100.00
2022-10-30T05:49:12.208Z,100.00
2022-10-30T05:50:12.085Z,100.00
2022-10-30T05:51:12.113Z,100.00
2022-10-30T05:52:12.186Z,100.00
2022-10-30T05:53:12.087Z,100.00
2022-10-30T05:54:12.161Z,100.00
2022-10-30T05:55:12.078Z,100.00
2022-10-30T05:56:12.009Z,100.00
2022-10-30T05:57:12.009Z,100.00
2022-10-30T05:58:12.055Z,100.00
2022-10-30T05:59:11.990Z,100.00
2022-10-30T06:00:12.065Z,100.00
2022-10-30T06:01:12.025Z,100.00
2022-10-30T06:02:12.014Z,100.00
2022-10-30T06:03:11.958Z,100.00
2022-10-30T06:04:11.996Z,100.00
2022-10-30T06:05:11.989Z,100.00
2022-10-30T06:06:11.973Z,100.00
2022-10-30T06:07:11.867Z,100.00
2022-10-30T06:08:12.726Z,100.00
2022-10-30T06:09:11.963Z,100.00
2022-10-30T06:10:11.885Z,100.00
2022-10-30T06:11:12.069Z,100.00
2022-10-30T06:12:11.888Z,100.00
2022-10-30T06:13:11.908Z,100.00
2022-10-30T06:14:11.772Z,100.00
2022-10-30T06:15:11.751Z,100.00
2022-10-30T06:16:11.832Z,100.00
2022-10-30T06:17:11.765Z,100.00
2022-10-30T06:18:11.725Z,100.00
2022-10-30T06:19:17.251Z,100.00
2022-10-30T06:20:11.727Z,100.00
2022-10-30T06:21:11.738Z,100.00
2022-10-30T06:22:11.692Z,100.00
2022-10-30T06:23:11.655Z,100.00
2022-10-30T06:24:11.689Z,100.00
2022-10-30T06:25:11.639Z,100.00
2022-10-30T06:26:11.599Z,100.00
2022-10-30T06:27:11.629Z,100.00
2022-10-30T06:28:11.599Z,100.00
2022-10-30T06:29:11.584Z,100.00
2022-10-30T06:30:11.612Z,100.00
2022-10-30T06:31:11.644Z,100.00
2022-10-30T06:32:11.564Z,100.00
2022-10-30T06:33:11.535Z,100.00
2022-10-30T06:34:11.516Z,100.00
2022-10-30T06:35:11.544Z,100.00
2022-10-30T06:36:11.516Z,100.00
2022-10-30T06:37:11.515Z,100.00
2022-10-30T06:38:11.467Z,100.00
2022-10-30T06:39:11.456Z,100.00
2022-10-30T06:40:11.425Z,100.00
2022-10-30T06:41:11.457Z,100.00
2022-10-30T06:42:11.392Z,100.00
2022-10-30T06:43:11.404Z,100.00
2022-10-30T06:44:11.395Z,100.00
2022-10-30T06:45:11.400Z,100.00
2022-10-30T06:46:11.358Z,100.00
2022-10-30T06:47:11.321Z,100.00
2022-10-30T06:48:11.330Z,100.00
2022-10-30T06:49:11.314Z,100.00
2022-10-30T06:50:11.346Z,100.00
2022-10-30T06:51:11.295Z,100.00
2022-10-30T06:52:11.267Z,100.00
2022-10-30T06:53:11.251Z,100.00
2022-10-30T06:54:11.280Z,100.00
2022-10-30T06:55:11.241Z,100.00
2022-10-30T06:56:11.199Z,100.00
2022-10-30T06:57:11.192Z,100.00
2022-10-30T06:58:11.190Z,100.00
2022-10-30T06:59:11.169Z,100.00
2022-10-30T07:00:11.173Z,100.00
2022-10-30T07:01:11.144Z,100.00
2022-10-30T07:02:11.503Z,100.00
2022-10-30T07:03:11.119Z,100.00
2022-10-30T07:04:11.110Z,100.00
2022-10-30T07:05:11.126Z,100.00
2022-10-30T07:06:11.064Z,100.00
2022-10-30T07:07:11.064Z,100.00
2022-10-30T07:08:11.057Z,100.00
2022-10-30T07:09:11.035Z,100.00
2022-10-30T07:10:11.013Z,100.00
2022-10-30T07:11:11.015Z,100.00
2022-10-30T07:12:11.015Z,100.00
2022-10-30T07:13:10.981Z,100.00
2022-10-30T07:14:11.371Z,100.00
2022-10-30T07:15:10.955Z,100.00
2022-10-30T07:16:11.035Z,100.00
2022-10-30T07:17:10.954Z,100.00
2022-10-30T07:18:10.911Z,100.00
2022-10-30T07:19:10.925Z,100.00
2022-10-30T07:20:10.932Z,100.00
2022-10-30T07:21:10.898Z,100.00
2022-10-30T07:22:10.872Z,100.00
2022-10-30T07:23:10.864Z,100.00
2022-10-30T07:24:10.833Z,100.00
2022-10-30T07:25:10.860Z,100.00
2022-10-30T07:26:10.824Z,100.00
2022-10-30T07:27:10.818Z,100.00
2022-10-30T07:28:10.827Z,100.00
2022-10-30T07:29:10.773Z,100.00
2022-10-30T07:30:10.820Z,100.00
2022-10-30T07:31:10.763Z,100.00
2022-10-30T07:32:10.730Z,100.00
2022-10-30T07:33:10.723Z,100.00
2022-10-30T07:34:10.731Z,100.00
2022-10-30T07:35:10.718Z,100.00
2022-10-30T07:36:10.712Z,100.00
2022-10-30T07:37:10.679Z,100.00
2022-10-30T07:38:10.716Z,100.00
2022-10-30T07:39:10.647Z,100.00
2022-10-30T07:40:12.888Z,100.00
2022-10-30T07:41:10.618Z,100.00
2022-10-30T07:42:10.626Z,100.00
2022-10-30T07:43:10.601Z,100.00
2022-10-30T07:44:10.575Z,100.00
2022-10-30T07:46:10.567Z,100.00
2022-10-30T07:47:10.554Z,100.00
2022-10-30T07:48:10.541Z,100.00
2022-10-30T07:49:10.547Z,100.00
2022-10-30T07:50:10.514Z,100.00
2022-10-30T07:51:10.526Z,100.00
2022-10-30T07:52:16.171Z,100.00
2022-10-30T07:53:10.539Z,100.00
2022-10-30T07:54:10.473Z,100.00
2022-10-30T07:55:10.437Z,100.00
2022-10-30T07:56:10.432Z,100.00
2022-10-30T07:57:10.460Z,100.00
2022-10-30T07:58:10.399Z,100.00
2022-10-30T07:59:10.401Z,100.00
2022-10-30T08:00:10.397Z,99.65
2022-10-30T08:01:10.382Z,98.39
2022-10-30T08:02:10.557Z,97.74
2022-10-30T08:03:10.363Z,97.25
2022-10-30T08:04:10.324Z,97.18
2022-10-30T08:05:10.306Z,95.50
2022-10-30T08:06:10.312Z,94.91
2022-10-30T08:07:10.283Z,93.34
2022-10-30T08:08:10.287Z,90.51
2022-10-30T08:09:10.270Z,90.89
2022-10-30T08:10:10.230Z,92.60
2022-10-30T08:11:10.235Z,92.42
2022-10-30T08:12:10.218Z,93.72
2022-10-30T08:13:10.268Z,95.07
2022-10-30T08:14:10.203Z,94.85
2022-10-30T08:15:10.172Z,95.85
2022-10-30T08:16:10.169Z,96.35
2022-10-30T08:17:10.146Z,96.75
2022-10-30T08:18:10.197Z,96.86
2022-10-30T08:19:10.138Z,97.51
2022-10-30T08:20:10.110Z,97.61
2022-10-30T08:21:10.118Z,97.09
2022-10-30T08:22:10.092Z,98.01
2022-10-30T08:23:10.092Z,98.29
2022-10-30T08:24:10.069Z,98.05
2022-10-30T08:25:10.100Z,97.84
2022-10-30T08:26:10.023Z,97.89
2022-10-30T08:27:10.045Z,96.76
2022-10-30T08:28:10.038Z,95.04
2022-10-30T08:29:10.021Z,94.06
2022-10-30T08:30:09.999Z,91.61
2022-10-30T08:31:09.982Z,89.57
2022-10-30T08:32:09.945Z,88.14
2022-10-30T08:33:09.950Z,87.29
2022-10-30T08:34:09.947Z,85.16
2022-10-30T08:35:09.923Z,85.51
2022-10-30T08:36:09.903Z,82.69
2022-10-30T08:37:09.901Z,80.15
2022-10-30T08:38:09.879Z,80.32
2022-10-30T08:39:09.873Z,79.46
2022-10-30T08:40:09.852Z,81.02
2022-10-30T08:41:09.843Z,81.50
2022-10-30T08:42:09.853Z,81.29
2022-10-30T08:43:09.824Z,81.54
2022-10-30T08:44:09.784Z,81.11
2022-10-30T08:45:09.794Z,79.63
2022-10-30T08:46:09.841Z,79.71
2022-10-30T08:47:09.820Z,79.51
2022-10-30T08:48:09.736Z,80.42
2022-10-30T08:49:09.766Z,80.10
2022-10-30T08:50:09.740Z,81.79
2022-10-30T08:51:09.717Z,82.58
2022-10-30T08:52:09.712Z,80.32
2022-10-30T08:53:09.676Z,79.74
2022-10-30T08:54:09.653Z,79.83
2022-10-30T08:55:09.641Z,77.86
2022-10-30T08:56:09.627Z,77.37
2022-10-30T08:57:09.638Z,78.09
2022-10-30T08:58:09.673Z,79.13
2022-10-30T08:59:09.689Z,80.61
2022-10-30T09:00:09.586Z,81.60
2022-10-30T09:01:09.669Z,80.33
2022-10-30T09:02:09.660Z,81.86
2022-10-30T09:03:10.030Z,82.21
2022-10-30T09:04:09.536Z,83.48
2022-10-30T09:05:09.593Z,83.69
2022-10-30T09:06:09.507Z,84.08
2022-10-30T09:07:12.092Z,84.11
2022-10-30T09:08:09.504Z,85.54
2022-10-30T09:09:09.486Z,86.01
2022-10-30T09:10:09.491Z,84.07
2022-10-30T09:11:09.452Z,83.32
2022-10-30T09:12:09.432Z,80.73
2022-10-30T09:13:09.422Z,79.20
2022-10-30T09:14:09.406Z,79.70
2022-10-30T09:15:09.381Z,79.06
2022-10-30T09:16:09.399Z,78.20
2022-10-30T09:17:09.355Z,78.05
2022-10-30T09:18:09.358Z,76.89
2022-10-30T09:19:09.342Z,75.05
2022-10-30T09:20:09.314Z,72.39
2022-10-30T09:21:09.305Z,71.80
2022-10-30T09:22:09.288Z,71.53
2022-10-30T09:23:09.302Z,73.79
2022-10-30T09:24:09.272Z,73.57
2022-10-30T09:25:09.867Z,72.44
2022-10-30T09:26:09.629Z,71.69
2022-10-30T09:27:09.721Z,70.77
2022-10-30T09:28:09.436Z,69.79
2022-10-30T09:29:09.856Z,69.79
2022-10-30T09:30:09.655Z,69.10
2022-10-30T09:31:09.414Z,69.36
2022-10-30T09:32:09.290Z,70.11
2022-10-30T09:33:09.582Z,71.30
2022-10-30T09:34:09.632Z,71.28
2022-10-30T09:35:09.785Z,70.02
2022-10-30T09:36:09.130Z,68.73
2022-10-30T09:37:09.217Z,69.20
2022-10-30T09:38:09.183Z,69.46
2022-10-30T09:39:09.076Z,67.53
2022-10-30T09:40:09.050Z,66.21
2022-10-30T09:41:09.440Z,65.57
2022-10-30T09:42:09.148Z,65.24
2022-10-30T09:43:09.274Z,65.53
2022-10-30T09:44:09.310Z,64.71
2022-10-30T09:45:27.883Z,65.87
2022-10-30T09:46:09.122Z,67.04
2022-10-30T09:47:09.050Z,69.48
2022-10-30T09:48:08.946Z,71.14
2022-10-30T09:50:09.682Z,69.73
2022-10-30T09:51:09.279Z,67.83
2022-10-30T09:52:08.900Z,66.60
2022-10-30T09:53:08.900Z,65.48
2022-10-30T09:54:08.897Z,65.01
2022-10-30T09:55:08.889Z,64.72
2022-10-30T09:56:08.942Z,65.03
2022-10-30T09:57:09.402Z,64.74
2022-10-30T09:58:08.967Z,64.70
2022-10-30T09:59:08.870Z,64.44
2022-10-30T10:00:09.269Z,66.18
2022-10-30T10:01:08.851Z,67.44
2022-10-30T10:02:08.957Z,69.40
2022-10-30T10:03:08.806Z,68.49
2022-10-30T10:04:08.846Z,67.69
2022-10-30T10:05:09.488Z,66.32
2022-10-30T10:06:09.147Z,65.31
2022-10-30T10:07:08.877Z,64.31
2022-10-30T10:08:09.485Z,63.08
2022-10-30T10:09:08.792Z,63.28
2022-10-30T10:10:08.864Z,62.02
2022-10-30T10:11:09.010Z,62.72
2022-10-30T10:12:08.874Z,61.70
2022-10-30T10:13:09.645Z,62.04
2022-10-30T10:14:08.737Z,62.15
2022-10-30T10:15:08.635Z,61.97
2022-10-30T10:16:08.722Z,61.15
2022-10-30T10:17:08.598Z,63.06
2022-10-30T10:18:08.586Z,63.69
2022-10-30T10:19:08.554Z,62.92
2022-10-30T10:20:08.552Z,63.75
2022-10-30T10:21:09.281Z,65.10
2022-10-30T10:22:08.517Z,66.03
2022-10-30T10:23:08.514Z,65.35
2022-10-30T10:24:09.041Z,64.49
2022-10-30T10:25:12.520Z,63.44
2022-10-30T10:26:09.003Z,63.49
2022-10-30T10:27:08.451Z,63.09
2022-10-30T10:28:08.516Z,64.70
2022-10-30T10:29:08.800Z,63.66
2022-10-30T10:30:08.906Z,63.73
2022-10-30T10:31:08.875Z,62.77
2022-10-30T10:32:09.233Z,61.90
2022-10-30T10:33:08.902Z,62.33
2022-10-30T10:34:08.415Z,62.27
2022-10-30T10:35:08.479Z,61.54
2022-10-30T10:36:08.497Z,59.88
2022-10-30T10:37:08.333Z,59.54
2022-10-30T10:38:08.457Z,59.87
2022-10-30T10:39:08.301Z,61.10
2022-10-30T10:40:08.437Z,61.44
2022-10-30T10:41:09.067Z,60.73
2022-10-30T10:42:08.392Z,61.53
2022-10-30T10:43:08.259Z,61.62
2022-10-30T10:44:08.222Z,62.16
2022-10-30T10:45:08.354Z,61.10
2022-10-30T10:46:08.238Z,60.14
2022-10-30T10:47:08.237Z,59.77
2022-10-30T10:48:08.442Z,60.69
2022-10-30T10:49:08.533Z,62.46
2022-10-30T10:50:10.010Z,63.73
2022-10-30T10:51:08.273Z,63.98
2022-10-30T10:52:08.175Z,64.11
2022-10-30T10:53:08.123Z,65.26
2022-10-30T10:54:08.110Z,64.81
2022-10-30T10:55:08.071Z,64.95
2022-10-30T10:56:08.452Z,66.39
2022-10-30T10:57:08.837Z,66.62
2022-10-30T10:58:08.056Z,66.44
2022-10-30T10:59:08.037Z,65.67
2022-10-30T11:00:08.028Z,65.59
2022-10-30T11:01:08.450Z,65.55
2022-10-30T11:02:08.208Z,65.27
2022-10-30T11:03:08.659Z,65.46
2022-10-30T11:04:09.028Z,65.70
2022-10-30T11:05:07.995Z,65.80
2022-10-30T11:06:08.487Z,66.54
2022-10-30T11:07:08.487Z,67.01
2022-10-30T11:08:07.917Z,66.99
2022-10-30T11:09:08.422Z,66.58
2022-10-30T11:10:07.899Z,64.70
2022-10-30T11:11:08.148Z,64.85
2022-10-30T11:12:08.534Z,64.10
2022-10-30T11:13:07.844Z,63.74
2022-10-30T11:14:07.839Z,64.39
2022-10-30T11:15:07.825Z,63.11
2022-10-30T11:16:07.848Z,63.45
2022-10-30T11:17:07.805Z,62.39
2022-10-30T11:18:07.842Z,62.60
2022-10-30T11:19:07.798Z,62.06
2022-10-30T11:20:07.787Z,61.55
2022-10-30T11:21:07.753Z,61.02
2022-10-30T11:22:07.762Z,61.46
2022-10-30T11:23:07.742Z,61.31
2022-10-30T11:24:07.754Z,59.81
2022-10-30T11:25:07.693Z,59.52
2022-10-30T11:26:07.697Z,59.72
2022-10-30T11:27:07.675Z,59.74
2022-10-30T11:28:07.680Z,59.76
2022-10-30T11:29:07.683Z,59.88
2022-10-30T11:30:07.641Z,61.33
2022-10-30T11:31:07.723Z,60.30
2022-10-30T11:32:07.763Z,60.97
2022-10-30T11:33:07.607Z,60.15
2022-10-30T11:34:07.624Z,59.40
2022-10-30T11:35:07.581Z,59.83
2022-10-30T11:36:11.501Z,58.96
2022-10-30T11:37:07.550Z,58.82
2022-10-30T11:38:07.627Z,59.84
2022-10-30T11:39:07.542Z,58.14
2022-10-30T11:40:08.301Z,58.10
2022-10-30T11:41:08.677Z,58.42
2022-10-30T11:42:07.507Z,58.20
2022-10-30T11:43:07.474Z,58.86
2022-10-30T11:44:08.238Z,57.62
2022-10-30T11:45:07.440Z,58.79
2022-10-30T11:46:07.584Z,59.33
2022-10-30T11:47:07.630Z,58.44
2022-10-30T11:48:13.417Z,58.07
2022-10-30T11:49:08.030Z,59.62
2022-10-30T11:50:07.904Z,60.48
2022-10-30T11:51:07.482Z,60.42
2022-10-30T11:52:07.608Z,60.49
2022-10-30T11:53:08.384Z,60.43
2022-10-30T11:54:07.473Z,60.08
2022-10-30T11:55:07.313Z,59.61
2022-10-30T11:56:07.584Z,58.91
2022-10-30T11:57:07.709Z,57.83
2022-10-30T11:58:07.720Z,57.26
2022-10-30T11:59:07.320Z,56.70
2022-10-30T12:00:07.273Z,55.68
2022-10-30T12:01:07.255Z,56.01
2022-10-30T12:02:07.535Z,55.84
2022-10-30T12:03:07.350Z,55.34
2022-10-30T12:04:07.345Z,55.52
2022-10-30T12:05:07.209Z,56.04
2022-10-30T12:06:07.325Z,56.03
2022-10-30T12:07:07.206Z,56.60
2022-10-30T12:08:07.139Z,58.64
2022-10-30T12:09:07.217Z,57.61
2022-10-30T12:10:07.120Z,55.36
2022-10-30T12:11:07.114Z,55.43
2022-10-30T12:12:07.107Z,56.38
2022-10-30T12:13:07.111Z,56.66
2022-10-30T12:14:07.078Z,57.00
2022-10-30T12:15:07.068Z,57.59
2022-10-30T12:16:07.036Z,58.80
2022-10-30T12:17:07.018Z,60.41
2022-10-30T12:18:07.024Z,60.25
2022-10-30T12:19:07.012Z,61.51
2022-10-30T12:20:07.001Z,61.45
2022-10-30T12:21:06.979Z,61.69
2022-10-30T12:22:09.787Z,62.07
2022-10-30T12:23:06.953Z,63.44
2022-10-30T12:24:07.003Z,63.50
2022-10-30T12:25:06.968Z,64.02
2022-10-30T12:26:06.924Z,63.40
2022-10-30T12:27:06.904Z,63.47
2022-10-30T12:28:06.894Z,63.26
2022-10-30T12:29:06.860Z,63.31
2022-10-30T12:30:09.303Z,64.38
2022-10-30T12:31:06.852Z,64.16
2022-10-30T12:32:06.838Z,63.12
2022-10-30T12:33:06.820Z,62.88
2022-10-30T12:34:06.849Z,63.19
2022-10-30T12:35:06.798Z,64.51
2022-10-30T12:36:06.807Z,64.22
2022-10-30T12:37:06.777Z,64.53
2022-10-30T12:38:06.754Z,65.38
2022-10-30T12:39:06.863Z,64.67
2022-10-30T12:40:06.723Z,64.04
2022-10-30T12:41:06.710Z,64.13
2022-10-30T12:42:06.711Z,63.75
2022-10-30T12:43:06.690Z,63.61
2022-10-30T12:44:06.701Z,63.89
2022-10-30T12:45:06.673Z,63.40
2022-10-30T12:46:06.674Z,64.27
2022-10-30T12:47:06.674Z,63.96
2022-10-30T12:48:06.634Z,63.79
2022-10-30T12:49:06.607Z,64.75
2022-10-30T12:50:06.633Z,64.66
2022-10-30T12:51:06.587Z,64.23
2022-10-30T12:52:06.570Z,64.25
2022-10-30T12:53:06.556Z,63.25
2022-10-30T12:54:06.551Z,62.65
2022-10-30T12:55:06.529Z,63.00
2022-10-30T12:56:06.529Z,62.37
2022-10-30T12:57:06.524Z,62.71
2022-10-30T12:58:06.533Z,62.56
2022-10-30T12:59:06.488Z,62.14
2022-10-30T13:00:06.492Z,60.41
2022-10-30T13:01:06.467Z,59.34
2022-10-30T13:02:06.553Z,58.11
2022-10-30T13:03:06.434Z,57.46
2022-10-30T13:04:06.435Z,56.83
2022-10-30T13:05:06.408Z,56.59
2022-10-30T13:06:06.416Z,56.33
2022-10-30T13:07:06.469Z,56.04
2022-10-30T13:08:06.372Z,55.76
2022-10-30T13:09:06.367Z,54.90
2022-10-30T13:10:06.345Z,53.90
2022-10-30T13:11:06.315Z,53.77
2022-10-30T13:12:06.510Z,53.54
2022-10-30T13:13:06.284Z,52.79
2022-10-30T13:14:06.316Z,53.44
2022-10-30T13:15:06.262Z,53.80
2022-10-30T13:16:06.264Z,54.21
2022-10-30T13:17:06.234Z,54.13
2022-10-30T13:18:06.244Z,54.88
2022-10-30T13:19:06.230Z,54.70
2022-10-30T13:20:06.229Z,54.71
2022-10-30T13:21:06.197Z,54.18
2022-10-30T13:22:06.361Z,54.20
2022-10-30T13:23:06.190Z,53.77
2022-10-30T13:24:06.146Z,54.33
2022-10-30T13:25:06.129Z,54.10
2022-10-30T13:26:06.143Z,53.98
2022-10-30T13:27:06.174Z,54.94
2022-10-30T13:28:06.113Z,55.24
2022-10-30T13:29:06.098Z,56.46
2022-10-30T13:30:06.096Z,56.46
2022-10-30T13:31:06.056Z,58.12
2022-10-30T13:32:06.056Z,58.33
2022-10-30T13:33:06.047Z,57.84
2022-10-30T13:34:06.034Z,59.01
2022-10-30T13:35:06.011Z,58.49
2022-10-30T13:36:05.987Z,57.51
2022-10-30T13:37:06.019Z,57.47
2022-10-30T13:38:05.970Z,57.60
2022-10-30T13:39:05.957Z,59.46
2022-10-30T13:40:05.940Z,59.42
2022-10-30T13:41:05.941Z,58.82
2022-10-30T13:42:05.939Z,59.69
2022-10-30T13:43:05.933Z,59.85
2022-10-30T13:44:05.912Z,60.82
2022-10-30T13:45:05.899Z,61.07
2022-10-30T13:46:05.880Z,61.31
2022-10-30T13:47:05.862Z,61.16
2022-10-30T13:48:05.864Z,62.02
2022-10-30T13:49:05.832Z,62.61
2022-10-30T13:50:05.804Z,64.54
2022-10-30T13:51:05.808Z,64.12
2022-10-30T13:52:05.785Z,64.97
2022-10-30T13:53:05.794Z,65.22
2022-10-30T13:54:05.771Z,66.25
2022-10-30T13:55:05.751Z,65.36
2022-10-30T13:56:05.726Z,65.91
2022-10-30T13:57:05.733Z,65.91
2022-10-30T13:58:05.701Z,67.13
2022-10-30T13:59:05.724Z,66.85
2022-10-30T14:00:05.671Z,66.83
2022-10-30T14:01:05.742Z,66.52
2022-10-30T14:02:05.781Z,66.50
2022-10-30T14:03:05.686Z,68.08
2022-10-30T14:04:05.686Z,67.49
2022-10-30T14:05:05.640Z,67.14
2022-10-30T14:06:05.667Z,67.78
2022-10-30T14:07:05.600Z,68.62
2022-10-30T14:08:06.451Z,67.66
2022-10-30T14:09:05.585Z,68.20
2022-10-30T14:10:05.541Z,69.17
2022-10-30T14:11:05.584Z,68.44
2022-10-30T14:12:05.528Z,68.82
2022-10-30T14:13:05.529Z,69.84
2022-10-30T14:14:05.510Z,69.68
2022-10-30T14:15:05.482Z,69.19
2022-10-30T14:16:05.472Z,68.45
2022-10-30T14:17:05.485Z,69.31
2022-10-30T14:18:05.452Z,69.35
2022-10-30T14:19:05.431Z,70.67
2022-10-30T14:20:10.550Z,71.03
2022-10-30T14:21:05.425Z,69.61
2022-10-30T14:22:05.388Z,70.68
2022-10-30T14:23:05.399Z,71.22
2022-10-30T14:24:05.367Z,71.99
2022-10-30T14:25:05.367Z,72.03
2022-10-30T14:26:05.345Z,72.52
2022-10-30T14:27:05.330Z,72.87
2022-10-30T14:28:05.313Z,72.49
2022-10-30T14:29:05.313Z,72.72
2022-10-30T14:30:05.282Z,71.87
2022-10-30T14:31:05.273Z,73.72
2022-10-30T14:32:05.279Z,72.78
2022-10-30T14:33:05.258Z,73.87
2022-10-30T14:34:05.238Z,73.99
2022-10-30T14:35:05.252Z,74.22
2022-10-30T14:36:05.209Z,75.67
2022-10-30T14:37:05.205Z,76.40
2022-10-30T14:38:05.194Z,75.90
2022-10-30T14:39:05.287Z,74.77
2022-10-30T14:40:05.147Z,76.32
2022-10-30T14:41:07.109Z,74.95
2022-10-30T14:42:05.126Z,75.27
2022-10-30T14:43:05.161Z,76.19
2022-10-30T14:44:05.114Z,78.22
2022-10-30T14:45:05.117Z,77.37